Time;durP1;ratioP1;P1;durP2;ratioP2;P2;SDS_P1;SDS_P2;PMS_P1;PMS_P2;Temp;Humidity;BMP_temperature;BMP_pressure;BME280_temperature;BME280_humidity;BME280_pressure;Samples;Min_cycle;Max_cycle;Signal;HPM_P1;HPM_P2
2021/01/09 00:32:36;;;;;;;12.10;7.25;;;;;;;4.42;73.43;100160.88;6048333;23;20026;-78
2021/01/09 00:35:06;;;;;;;12.57;7.93;;;;;;;4.40;73.27;100160.03;6187321;23;20028;-80
2021/01/09 00:37:32;;;;;;;12.55;8.68;;;;;;;4.39;73.09;100166.16;6187095;23;20021;-81
2021/01/09 00:39:58;;;;;;;13.77;8.50;;;;;;;4.37;72.93;100162.75;6186715;23;20460;-80
2021/01/09 00:42:24;;;;;;;12.02;7.85;;;;;;;4.35;72.67;100162.78;6186678;23;20021;-82
2021/01/09 00:44:50;;;;;;;12.10;7.20;;;;;;;4.33;72.45;100164.56;6187414;23;20032;-80
2021/01/09 00:47:17;;;;;;;9.68;6.68;;;;;;;4.29;72.76;100169.00;6187544;23;20021;-80
2021/01/09 00:49:43;;;;;;;11.77;7.32;;;;;;;4.27;72.60;100167.31;6186812;23;20021;-80
2021/01/09 00:52:09;;;;;;;11.02;7.68;;;;;;;4.27;72.97;100172.53;6186561;23;20025;-81
2021/01/09 00:54:39;;;;;;;12.45;8.05;;;;;;;4.24;72.60;100170.88;6186409;23;20024;-80
2021/01/09 00:57:05;;;;;;;13.73;8.35;;;;;;;4.24;73.09;100176.06;6186506;23;20028;-80
2021/01/09 00:59:31;;;;;;;13.43;8.10;;;;;;;4.23;72.94;100174.34;6186891;23;20025;-80
2021/01/09 01:01:57;;;;;;;12.77;7.30;;;;;;;4.23;73.13;100176.94;6186829;23;20478;-80
2021/01/09 01:04:24;;;;;;;14.65;8.75;;;;;;;4.24;73.08;100181.28;6186899;23;20025;-80
2021/01/09 01:06:50;;;;;;;17.60;9.15;;;;;;;4.22;72.85;100177.00;6186771;23;20032;-80
2021/01/09 01:09:17;;;;;;;16.88;8.80;;;;;;;4.22;72.95;100185.66;6186791;23;20387;-79
2021/01/09 01:11:43;;;;;;;40.35;9.20;;;;;;;4.21;73.10;100197.00;6186983;23;20020;-80
2021/01/09 01:14:09;;;;;;;26.02;9.18;;;;;;;4.21;73.37;100188.31;6186414;23;20025;-80
2021/01/09 01:16:36;;;;;;;12.70;8.48;;;;;;;4.19;73.21;100190.97;6186575;23;20021;-80
2021/01/09 01:19:03;;;;;;;23.35;8.57;;;;;;;4.18;72.97;100184.03;6186217;23;20080;-80
2021/01/09 01:21:33;;;;;;;41.78;8.45;;;;;;;4.16;72.77;100189.25;6186281;23;20061;-80
2021/01/09 01:23:59;;;;;;;47.75;9.40;;;;;;;4.17;73.08;100190.13;6186267;23;20028;-80
2021/01/09 01:26:25;;;;;;;57.85;10.00;;;;;;;4.15;72.64;100192.78;6186182;23;20021;-80
2021/01/09 01:28:51;;;;;;;55.83;10.20;;;;;;;4.15;72.87;100199.75;6186149;23;20025;-80
2021/01/09 01:31:23;;;;;;;65.32;9.63;;;;;;;4.12;72.26;100202.41;6186507;23;20084;-80
2021/01/09 01:33:50;;;;;;;79.72;10.82;;;;;;;4.12;72.85;100212.84;6185723;23;20033;-80
2021/01/09 01:36:16;;;;;;;96.88;10.60;;;;;;;4.10;72.70;100204.19;6185959;23;20017;-80
2021/01/09 01:38:42;;;;;;;83.05;10.07;;;;;;;4.08;72.46;100213.78;6186439;23;20025;-80
2021/01/09 01:41:10;;;;;;;85.55;10.15;;;;;;;4.04;72.16;100215.63;6186449;23;20032;-80
2021/01/09 01:43:38;;;;;;;38.92;8.93;;;;;;;4.03;72.50;100224.31;6185736;23;20475;-80
2021/01/09 01:46:09;;;;;;;60.83;9.45;;;;;;;4.00;71.98;100220.03;6186418;23;20017;-80
2021/01/09 01:48:37;;;;;;;92.13;10.23;;;;;;;3.97;72.18;100225.31;6185891;23;20456;-80
2021/01/09 01:51:04;;;;;;;78.57;10.32;;;;;;;3.94;72.56;100230.59;6159788;23;20028;-80
2021/01/09 01:53:31;;;;;;;30.27;7.22;;;;;;;3.91;72.15;100228.91;6185558;23;20491;-80
2021/01/09 01:55:58;;;;;;;45.28;8.43;;;;;;;3.89;72.38;100229.84;6186248;23;20036;-80
2021/01/09 01:58:24;;;;;;;34.92;6.78;;;;;;;3.86;72.32;100233.38;6186434;23;20021;-80
2021/01/09 02:00:50;;;;;;;36.72;7.70;;;;;;;3.83;72.32;100233.44;6185854;23;20036;-81
2021/01/09 02:03:21;;;;;;;35.55;9.05;;;;;;;3.80;72.17;100235.22;6185250;23;20495;-80
2021/01/09 02:06:04;;;;;;;51.45;9.60;;;;;;;3.75;71.73;100240.53;6186269;23;20083;-80
2021/01/09 02:08:35;;;;;;;59.53;11.48;;;;;;;3.74;72.15;100237.06;6185893;23;20029;-80
2021/01/09 02:11:06;;;;;;;48.90;11.35;;;;;;;3.73;72.18;100237.09;6185878;23;20608;-80
2021/01/09 02:13:46;;;;;;;57.58;12.23;;;;;;;3.68;71.86;100245.03;6185400;23;20025;-80
2021/01/09 02:16:13;;;;;;;57.85;12.32;;;;;;;3.68;72.44;100242.41;6185743;23;20463;-80
2021/01/09 02:18:41;;;;;;;62.92;10.80;;;;;;;3.62;72.11;100246.00;6186063;23;20025;-80
2021/01/09 02:21:38;;;;;;;80.03;12.95;;;;;;;3.59;72.11;100247.81;6186125;23;20058;-80
2021/01/09 02:24:16;;;;;;;48.03;9.35;;;;;;;3.57;71.70;100252.19;6181524;23;20025;-80
2021/01/09 02:26:42;;;;;;;72.82;11.40;;;;;;;3.58;72.12;100253.88;6185790;23;20025;-80
2021/01/09 02:29:11;;;;;;;50.83;11.38;;;;;;;3.54;72.31;100252.25;6185942;23;20025;-80
2021/01/09 02:31:52;;;;;;;28.27;8.68;;;;;;;3.49;71.66;100255.81;6185614;23;20383;-80
2021/01/09 02:34:19;;;;;;;35.88;8.68;;;;;;;3.48;71.78;100254.06;6185303;23;20399;-81
2021/01/09 02:36:46;;;;;;;36.33;8.88;;;;;;;3.44;72.11;100251.59;6186187;23;20025;-80
2021/01/09 02:39:16;;;;;;;57.63;9.52;;;;;;;3.39;71.76;100251.66;6186063;23;20025;-80
2021/01/09 02:41:46;;;;;;;15.27;7.45;;;;;;;3.35;71.97;100255.19;6185984;23;20083;-80
2021/01/09 02:44:14;;;;;;;13.68;7.55;;;;;;;3.33;72.42;100259.59;6185722;23;20025;-80
2021/01/09 02:46:41;;;;;;;13.65;7.30;;;;;;;3.31;72.43;100261.34;6185895;23;20021;-80
2021/01/09 02:49:08;;;;;;;15.48;7.45;;;;;;;3.29;72.74;100263.13;6185923;23;20055;-80
2021/01/09 02:51:35;;;;;;;13.80;8.13;;;;;;;3.27;72.48;100265.75;6185643;23;20490;-80
2021/01/09 02:54:01;;;;;;;14.60;7.35;;;;;;;3.26;72.73;100270.09;6185618;23;20340;-80
2021/01/09 02:56:27;;;;;;;14.90;6.68;;;;;;;3.28;72.56;100267.47;6185528;23;20022;-80
2021/01/09 02:58:53;;;;;;;11.85;6.82;;;;;;;3.26;72.79;100272.69;6185924;23;20021;-80
2021/01/09 03:01:19;;;;;;;13.25;6.43;;;;;;;3.26;72.42;100279.66;6159641;23;20021;-81
2021/01/09 03:03:46;;;;;;;11.85;6.28;;;;;;;3.26;72.56;100284.88;6185672;23;20021;-81
2021/01/09 03:06:12;;;;;;;11.65;6.28;;;;;;;3.25;72.66;100280.53;6185895;23;20024;-80
2021/01/09 03:08:38;;;;;;;13.60;6.50;;;;;;;3.25;73.25;100280.53;6185671;23;20032;-80
2021/01/09 03:11:04;;;;;;;9.77;5.82;;;;;;;3.26;73.05;100277.06;6185493;23;20025;-80
2021/01/09 03:13:30;;;;;;;11.18;6.07;;;;;;;3.27;72.99;100281.38;6186025;23;20075;-81
2021/01/09 03:15:56;;;;;;;11.70;5.90;;;;;;;3.29;73.08;100284.78;6187879;23;20024;-81
2021/01/09 03:18:26;;;;;;;14.07;6.78;;;;;;;3.31;73.39;100289.97;6187382;23;20464;-80
2021/01/09 03:20:52;;;;;;;14.43;6.47;;;;;;;3.34;73.10;100293.41;6188065;23;20052;-80
2021/01/09 03:23:18;;;;;;;8.50;5.20;;;;;;;3.36;73.67;100288.13;6187519;23;20029;-80
2021/01/09 03:25:44;;;;;;;9.65;4.80;;;;;;;3.38;73.11;100295.06;6187762;23;20079;-80
2021/01/09 03:28:10;;;;;;;10.48;6.00;;;;;;;3.42;73.60;100292.38;6186230;23;20573;-81
2021/01/09 03:30:36;;;;;;;10.48;6.20;;;;;;;3.44;73.25;100291.47;6186532;23;20029;-81
2021/01/09 03:33:02;;;;;;;11.32;6.28;;;;;;;3.47;73.37;100294.00;6187118;23;20096;-80
2021/01/09 03:35:28;;;;;;;11.02;5.70;;;;;;;3.49;73.50;100296.59;6187544;23;20409;-80
2021/01/09 03:37:54;;;;;;;11.38;5.80;;;;;;;3.52;73.00;100299.16;6187286;23;20029;-80
2021/01/09 03:40:21;;;;;;;11.38;6.50;;;;;;;3.53;73.61;100300.84;6187187;23;20036;-80
2021/01/09 03:42:47;;;;;;;14.27;7.25;;;;;;;3.56;73.64;100293.00;6187554;23;20021;-81
2021/01/09 03:45:13;;;;;;;14.57;7.65;;;;;;;3.59;73.27;100297.28;6187391;23;20028;-81
2021/01/09 03:47:39;;;;;;;17.00;7.47;;;;;;;3.62;73.65;100297.19;6187555;23;20024;-80
2021/01/09 03:50:06;;;;;;;17.88;7.70;;;;;;;3.62;73.57;100287.66;6161327;23;20027;-80
2021/01/09 03:52:32;;;;;;;15.48;7.70;;;;;;;3.64;73.33;100295.44;6186822;23;20029;-80
2021/01/09 03:54:58;;;;;;;17.13;8.48;;;;;;;3.66;73.36;100298.84;6186990;23;20017;-80
2021/01/09 03:57:24;;;;;;;17.33;8.90;;;;;;;3.68;73.55;100294.50;6187432;23;20021;-80
2021/01/09 03:59:51;;;;;;;17.00;9.10;;;;;;;3.70;73.43;100294.47;6186914;23;20032;-81
2021/01/09 04:02:17;;;;;;;20.98;9.77;;;;;;;3.70;73.09;100295.31;6187143;23;20021;-80
2021/01/09 04:04:43;;;;;;;22.40;10.20;;;;;;;3.71;73.26;100293.56;6186883;23;20025;-81
2021/01/09 04:07:09;;;;;;;21.92;9.50;;;;;;;3.71;73.14;100296.16;6187640;23;20025;-80
2021/01/09 04:09:35;;;;;;;22.35;10.82;;;;;;;3.72;73.66;100295.28;6187288;23;20099;-80
2021/01/09 04:12:02;;;;;;;21.95;10.82;;;;;;;3.71;73.47;100293.56;6186919;23;20025;-81
2021/01/09 04:14:28;;;;;;;23.70;11.13;;;;;;;3.72;73.40;100290.06;6187110;23;20028;-80
2021/01/09 04:16:55;;;;;;;22.77;10.80;;;;;;;3.72;73.35;100296.16;6186870;23;20025;-81
2021/01/09 04:19:21;;;;;;;18.73;10.10;;;;;;;3.72;73.26;100293.53;6187164;23;20025;-80
2021/01/09 04:21:52;;;;;;;21.80;10.40;;;;;;;3.72;73.41;100296.16;6187282;23;20044;-80
2021/01/09 04:24:22;;;;;;;28.55;11.18;;;;;;;3.73;73.50;100300.47;6187224;23;20021;-80
2021/01/09 04:26:57;;;;;;;21.27;10.27;;;;;;;3.71;72.85;100299.66;6186483;23;20017;-80
2021/01/09 04:29:24;;;;;;;21.45;9.45;;;;;;;3.73;73.12;100297.84;6187025;23;20025;-80
2021/01/09 04:31:51;;;;;;;19.25;10.20;;;;;;;3.73;73.49;100294.38;6186800;23;20028;-80
2021/01/09 04:34:18;;;;;;;20.45;10.43;;;;;;;3.74;73.46;100296.97;6186605;23;20025;-80
2021/01/09 04:36:44;;;;;;;19.50;9.40;;;;;;;3.74;73.41;100290.91;6186940;23;20017;-80
2021/01/09 04:39:11;;;;;;;14.98;7.68;;;;;;;3.74;73.25;100294.34;6187026;23;20032;-81
2021/01/09 04:41:38;;;;;;;18.02;9.20;;;;;;;3.76;73.33;100291.72;6187021;23;20021;-80
2021/01/09 04:44:06;;;;;;;17.73;9.00;;;;;;;3.78;73.09;100292.56;6186574;23;20021;-81
2021/01/09 04:46:51;;;;;;;18.90;9.20;;;;;;;3.76;72.92;100292.59;6187010;23;20076;-80
2021/01/09 04:49:19;;;;;;;18.90;9.52;;;;;;;3.81;73.05;100289.03;6187043;23;20020;-80
2021/01/09 04:51:47;;;;;;;19.20;9.45;;;;;;;3.81;72.98;100294.25;6186955;23;20046;-81
2021/01/09 04:54:16;;;;;;;16.33;8.00;;;;;;;3.83;72.85;100300.28;6186542;23;20025;-80
2021/01/09 04:56:50;;;;;;;19.58;9.40;;;;;;;3.80;72.53;100305.53;6186767;23;20021;-80
2021/01/09 04:59:17;;;;;;;23.95;10.13;;;;;;;3.82;73.22;100307.25;6186798;23;20021;-80
2021/01/09 05:01:45;;;;;;;25.23;12.30;;;;;;;3.83;73.19;100300.28;6186766;23;20021;-81
2021/01/09 05:04:11;;;;;;;35.10;15.30;;;;;;;3.82;72.96;100298.56;6186471;23;20029;-80
2021/01/09 05:06:39;;;;;;;33.00;15.77;;;;;;;3.80;72.41;100310.75;6187130;23;20064;-80
2021/01/09 05:09:06;;;;;;;29.90;14.10;;;;;;;3.75;72.44;100314.31;6187183;23;20021;-80
2021/01/09 05:11:34;;;;;;;29.85;14.50;;;;;;;3.71;72.73;100323.09;6186289;23;20079;-80
2021/01/09 05:14:02;;;;;;;27.98;13.98;;;;;;;3.70;72.81;100318.75;6186256;23;20029;-80
2021/01/09 05:16:28;;;;;;;22.65;11.63;;;;;;;3.69;73.01;100326.56;6186644;23;20017;-80
2021/01/09 05:18:54;;;;;;;28.35;12.25;;;;;;;3.68;73.26;100333.53;6186240;23;20125;-81
2021/01/09 05:21:21;;;;;;;24.17;12.10;;;;;;;3.69;73.41;100319.63;6186311;23;20036;-80
2021/01/09 05:23:57;;;;;;;29.08;14.05;;;;;;;3.67;72.90;100318.81;6186291;23;20025;-80
2021/01/09 05:26:23;;;;;;;31.80;14.52;;;;;;;3.70;73.06;100330.91;6186625;23;20021;-81
2021/01/09 05:28:51;;;;;;;30.58;13.50;;;;;;;3.69;73.21;100327.44;6186108;23;20025;-80
2021/01/09 05:31:19;;;;;;;32.17;13.73;;;;;;;3.71;73.06;100327.41;6186519;23;20024;-80
2021/01/09 05:33:46;;;;;;;31.05;13.95;;;;;;;3.71;73.44;100317.88;6185814;23;20025;-80
2021/01/09 05:36:12;;;;;;;38.13;14.65;;;;;;;3.71;73.28;100309.19;6185856;23;20028;-80
2021/01/09 05:38:41;;;;;;;33.08;14.25;;;;;;;3.69;72.95;100314.44;6186165;23;20029;-80
2021/01/09 05:41:11;;;;;;;37.33;14.90;;;;;;;3.69;72.92;100309.22;6186479;23;20025;-81
2021/01/09 05:43:38;;;;;;;41.00;14.98;;;;;;;3.67;72.79;100313.63;6186304;23;20021;-80
2021/01/09 05:46:07;;;;;;;34.45;14.30;;;;;;;3.62;72.35;100307.59;6186335;23;20096;-80
2021/01/09 05:48:35;;;;;;;32.63;13.75;;;;;;;3.56;72.41;100313.81;6186422;23;20047;-81
2021/01/09 05:51:06;;;;;;;31.38;13.63;;;;;;;3.49;72.31;100312.22;6185962;23;20029;-80
2021/01/09 05:53:37;;;;;;;24.50;11.13;;;;;;;3.41;72.16;100309.75;6185653;23;20032;-80
2021/01/09 05:56:04;;;;;;;21.20;10.57;;;;;;;3.36;72.73;100316.75;6185818;23;20018;-80
2021/01/09 05:58:32;;;;;;;23.17;11.02;;;;;;;3.31;72.68;100322.06;6186257;23;20071;-81
2021/01/09 06:01:04;;;;;;;21.55;10.63;;;;;;;3.28;72.18;100326.47;6186170;23;20025;-80
2021/01/09 06:03:37;;;;;;;22.90;10.10;;;;;;;3.25;72.44;100325.63;6185930;23;20078;-81
2021/01/09 06:06:29;;;;;;;29.70;11.38;;;;;;;3.22;72.56;100338.69;6186336;23;20024;-81
2021/01/09 06:09:00;;;;;;;24.58;10.07;;;;;;;3.22;72.74;100330.88;6173007;23;20029;-80
2021/01/09 06:11:35;;;;;;;20.73;9.82;;;;;;;3.21;72.68;100336.97;6186202;23;20028;-80
2021/01/09 06:14:04;;;;;;;23.23;10.20;;;;;;;3.21;73.04;100336.13;6185937;23;20020;-80
2021/01/09 06:16:32;;;;;;;23.10;10.15;;;;;;;3.20;73.21;100339.59;6185737;23;20025;-80
2021/01/09 06:19:00;;;;;;;22.83;9.82;;;;;;;3.20;73.16;100340.47;6185712;23;20325;-81
2021/01/09 06:21:30;;;;;;;24.70;10.63;;;;;;;3.19;72.82;100336.16;6186105;23;20031;-80
2021/01/09 06:24:01;;;;;;;25.30;10.02;;;;;;;3.19;72.67;100340.50;6185787;23;20087;-80
2021/01/09 06:26:29;;;;;;;23.85;11.00;;;;;;;3.17;73.04;100339.66;6186055;23;20021;-81
2021/01/09 06:28:57;;;;;;;22.63;10.43;;;;;;;3.16;73.00;100346.59;6186068;23;20091;-80
2021/01/09 06:31:28;;;;;;;21.80;9.15;;;;;;;3.13;73.36;100344.91;6185672;23;20535;-81
2021/01/09 06:34:07;;;;;;;21.83;9.60;;;;;;;3.09;72.71;100340.66;6184249;23;20108;-85
2021/01/09 06:36:39;;;;;;;20.17;9.38;;;;;;;3.13;73.35;100352.72;6189786;23;20028;-83
2021/01/09 06:39:09;;;;;;;18.45;8.40;;;;;;;3.13;73.45;100342.31;6160736;23;20021;-83
2021/01/09 06:41:37;;;;;;;17.30;8.60;;;;;;;3.18;73.89;100349.19;6160640;23;20055;-84
2021/01/09 06:44:07;;;;;;;14.77;7.78;;;;;;;3.20;73.63;100352.59;6159954;23;20418;-83
2021/01/09 06:46:35;;;;;;;20.80;8.30;;;;;;;3.23;73.98;100358.63;6160420;23;20017;-84
2021/01/09 06:49:02;;;;;;;16.77;7.97;;;;;;;3.29;73.99;100357.66;6160951;23;20021;-84
2021/01/09 06:51:34;;;;;;;18.23;8.57;;;;;;;3.32;73.67;100356.75;6162528;23;20021;-85
2021/01/09 06:54:13;;;;;;;18.90;7.70;;;;;;;3.35;73.81;100357.56;6188338;23;20025;-83
2021/01/09 06:56:40;;;;;;;16.75;8.35;;;;;;;3.43;74.22;100356.56;6188272;23;20021;-86
2021/01/09 06:59:06;;;;;;;16.77;8.27;;;;;;;3.46;73.88;100365.19;6162112;23;20025;-83
2021/01/09 07:01:36;;;;;;;20.75;8.73;;;;;;;3.47;73.76;100366.88;6162002;23;20025;-84
2021/01/09 07:04:03;;;;;;;18.35;8.57;;;;;;;3.51;74.31;100363.34;6161848;23;20021;-83
2021/01/09 07:06:59;;;;;;;15.13;8.73;;;;;;;3.52;73.72;100370.25;6162166;23;20021;-84
2021/01/09 07:09:27;;;;;;;25.45;8.65;;;;;;;3.60;73.81;100371.88;6176973;23;20526;-84
2021/01/09 07:11:54;;;;;;;16.98;8.60;;;;;;;3.62;73.92;100376.16;6162149;23;20487;-85
2021/01/09 07:14:22;;;;;;;20.42;9.07;;;;;;;3.66;73.92;100371.75;6187732;23;20036;-84
2021/01/09 07:16:48;;;;;;;20.52;8.85;;;;;;;3.68;73.50;100375.19;6161826;23;20067;-85
2021/01/09 07:19:17;;;;;;;16.83;8.00;;;;;;;3.71;73.57;100372.56;6188215;23;20103;-83
2021/01/09 07:21:46;;;;;;;18.73;9.02;;;;;;;3.74;73.34;100380.28;6188293;23;20025;-84
2021/01/09 07:24:16;;;;;;;19.20;8.95;;;;;;;3.75;73.28;100376.81;6163933;23;20033;-84
2021/01/09 07:26:42;;;;;;;17.52;8.65;;;;;;;3.79;73.56;100382.81;6162509;23;20340;-83
2021/01/09 07:29:08;;;;;;;21.20;10.13;;;;;;;3.80;73.18;100387.13;6188270;23;20025;-84
2021/01/09 07:31:39;;;;;;;17.38;7.75;;;;;;;3.80;73.32;100392.34;6162221;23;20464;-83
2021/01/09 07:34:12;;;;;;;21.05;9.88;;;;;;;3.81;72.87;100396.66;6187340;23;20052;-83
2021/01/09 07:36:39;;;;;;;;;;;;;;;3.84;72.45;100395.72;6162551;23;20017;-83
2021/01/09 07:39:05;;;;;;;16.25;8.82;;;;;;;3.87;72.93;100396.56;6162286;23;19924;-84
2021/01/09 07:41:37;;;;;;;18.38;9.45;;;;;;;3.85;72.80;100410.50;6161985;23;20021;-83
2021/01/09 07:44:21;;;;;;;19.20;9.45;;;;;;;3.83;72.77;100409.66;6160930;23;20495;-84
2021/01/09 07:46:50;;;;;;;17.48;9.52;;;;;;;3.84;73.06;100400.94;6162109;23;20448;-83
2021/01/09 07:49:53;;;;;;;18.75;9.13;;;;;;;3.81;72.89;100406.22;6161378;23;20479;-84
2021/01/09 07:52:24;;;;;;;17.87;9.47;;;;;;;3.86;72.52;100414.81;6161690;23;20021;-85
2021/01/09 07:54:55;;;;;;;23.02;9.73;;;;;;;3.88;73.34;100410.41;6160736;23;20025;-84
2021/01/09 07:57:22;;;;;;;17.70;8.82;;;;;;;3.88;73.18;100424.31;6187527;23;20013;-85
2021/01/09 07:59:54;;;;;;;17.65;9.40;;;;;;;3.86;72.94;100413.06;6187471;23;20025;-85
2021/01/09 08:02:34;;;;;;;17.85;9.05;;;;;;;3.85;72.38;100419.16;6187470;23;20478;-87
2021/01/09 08:05:20;;;;;;;18.75;8.80;;;;;;;3.84;72.57;100413.97;6161323;23;20025;-86
2021/01/09 08:07:53;;;;;;;17.15;8.52;;;;;;;3.85;73.13;100423.53;6187704;23;20060;-86
2021/01/09 08:10:27;;;;;;;16.10;7.60;;;;;;;3.83;73.19;100433.97;6187500;23;20031;-87
2021/01/09 08:13:01;;;;;;;17.33;7.82;;;;;;;3.82;72.94;100428.78;6161058;23;20083;-87
2021/01/09 08:15:29;;;;;;;17.38;8.88;;;;;;;3.83;73.23;100428.75;6162088;23;20021;-85
2021/01/09 08:18:00;;;;;;;12.68;7.32;;;;;;;3.82;72.98;100424.44;6187863;23;20020;-85
2021/01/09 08:20:27;;;;;;;14.93;7.95;;;;;;;3.83;73.46;100436.56;6161417;23;20095;-85
2021/01/09 08:23:01;;;;;;;15.77;8.18;;;;;;;3.83;73.38;100431.34;6161003;23;20340;-85
2021/01/09 08:25:31;;;;;;;13.93;8.02;;;;;;;3.84;73.10;100442.63;6187665;23;20025;-86
2021/01/09 08:27:59;;;;;;;19.60;9.05;;;;;;;3.85;73.71;100439.97;6187972;23;20025;-85
2021/01/09 08:30:28;;;;;;;19.17;9.05;;;;;;;3.87;73.42;100442.56;6161674;23;20056;-86
2021/01/09 08:33:08;;;;;;;22.13;10.07;;;;;;;3.87;73.34;100450.38;6160772;23;20033;-85
2021/01/09 08:35:36;;;;;;;28.65;11.23;;;;;;;3.91;73.95;100445.09;6161631;23;20021;-86
2021/01/09 08:38:03;;;;;;;55.80;13.98;;;;;;;3.94;73.57;100445.91;6187374;23;20021;-86
2021/01/09 08:40:31;;;;;;;35.53;12.48;;;;;;;3.96;73.66;100447.59;6186894;23;20017;-84
2021/01/09 08:43:03;;;;;;;30.40;12.23;;;;;;;3.99;74.11;100449.28;6160833;23;20021;-85
2021/01/09 08:45:41;;;;;;;33.92;12.73;;;;;;;4.00;73.56;100451.88;6161806;23;20028;-86
2021/01/09 08:48:11;;;;;;;39.40;11.73;;;;;;;4.06;73.92;100452.63;6161565;23;20021;-86
2021/01/09 08:50:45;;;;;;;42.63;12.57;;;;;;;4.07;73.53;100462.19;6161000;23;20032;-85
2021/01/09 08:53:15;;;;;;;49.80;13.82;;;;;;;4.13;73.75;100462.06;6160744;23;20542;-86
2021/01/09 08:55:42;;;;;;;36.45;13.38;;;;;;;4.14;73.97;100461.16;6186703;23;20483;-86
2021/01/09 08:58:13;;;;;;;32.60;13.40;;;;;;;4.13;73.61;100460.34;6161017;23;20028;-86
2021/01/09 09:00:40;;;;;;;34.60;13.00;;;;;;;4.15;73.95;100468.97;6160908;23;20025;-85
2021/01/09 09:03:08;;;;;;;39.22;14.27;;;;;;;4.17;73.78;100471.53;6186016;23;20025;-87
2021/01/09 09:05:37;;;;;;;41.97;14.18;;;;;;;4.19;74.19;100477.59;6161169;23;20024;-85
2021/01/09 09:08:04;;;;;;;37.50;14.43;;;;;;;4.21;74.09;100478.41;6160995;23;20347;-87
2021/01/09 09:10:31;;;;;;;37.83;14.02;;;;;;;4.23;74.05;100481.00;6161079;23;20075;-85
2021/01/09 09:13:17;;;;;;;44.35;15.73;;;;;;;4.21;73.37;100478.41;6160254;23;20025;-85
2021/01/09 09:15:43;;;;;;;44.95;15.13;;;;;;;4.28;74.34;100486.97;6160999;23;20017;-86
2021/01/09 09:18:10;;;;;;;33.88;12.85;;;;;;;4.29;73.96;100484.34;6186870;23;20025;-86
2021/01/09 09:20:38;;;;;;;42.45;13.88;;;;;;;4.31;74.32;100484.31;6186926;23;20027;-85
2021/01/09 09:23:15;;;;;;;85.40;17.65;;;;;;;4.30;73.16;100485.22;6160792;23;20392;-85
2021/01/09 09:25:41;;;;;;;69.65;16.92;;;;;;;4.33;73.67;100492.97;6161096;23;20017;-85
2021/01/09 09:28:08;;;;;;;87.80;19.05;;;;;;;4.33;73.72;100497.34;6161525;23;20021;-86
2021/01/09 09:30:34;;;;;;;133.80;19.17;;;;;;;4.29;73.37;100494.78;6186846;23;20025;-86
2021/01/09 09:33:11;;;;;;;124.85;18.67;;;;;;;4.24;73.15;100496.63;6159577;23;20032;-87
2021/01/09 09:35:38;;;;;;;75.00;16.58;;;;;;;4.24;73.92;100494.00;6160011;23;20017;-85
2021/01/09 09:38:04;;;;;;;99.28;17.67;;;;;;;4.23;73.88;100500.09;6161069;23;20033;-85
2021/01/09 09:40:35;;;;;;;168.00;18.33;;;;;;;4.22;74.21;100503.59;6186455;23;20088;-84
2021/01/09 09:43:19;;;;;;;65.82;15.85;;;;;;;4.21;73.61;100512.31;6159878;23;20029;-85
2021/01/09 09:46:04;;;;;;;;;;;;;;;4.25;73.42;100506.16;6160674;23;20464;-87
2021/01/09 09:48:32;;;;;;;55.55;14.27;;;;;;;4.32;74.42;100506.00;6186702;23;20294;-85
2021/01/09 09:51:01;;;;;;;83.38;15.05;;;;;;;4.35;74.40;100508.56;6160933;23;20076;-85
2021/01/09 09:53:27;;;;;;;50.45;15.05;;;;;;;4.37;74.09;100509.41;6186456;23;20079;-85
2021/01/09 09:56:16;;;;;;;33.47;14.20;;;;;;;4.34;73.90;100507.69;6160504;23;20021;-85
2021/01/09 09:58:43;;;;;;;45.58;15.07;;;;;;;4.41;74.60;100505.88;6160625;23;20024;-87
2021/01/09 10:01:20;;;;;;;44.42;15.48;;;;;;;4.39;73.83;100505.88;6186496;23;20024;-86
2021/01/09 10:03:48;;;;;;;32.42;13.30;;;;;;;4.46;74.40;100516.19;6186174;23;20489;-86
2021/01/09 10:06:16;;;;;;;34.30;14.45;;;;;;;4.49;74.50;100519.59;6160471;23;20081;-85
2021/01/09 10:08:42;;;;;;;35.65;15.18;;;;;;;4.53;74.77;100508.22;6160363;23;20036;-87
2021/01/09 10:11:09;;;;;;;53.58;15.85;;;;;;;4.56;74.40;100499.47;6160368;23;20370;-87
2021/01/09 10:13:37;;;;;;;47.38;17.75;;;;;;;4.59;74.07;100504.63;6185726;23;20494;-85
2021/01/09 10:16:04;;;;;;;96.10;18.20;;;;;;;4.61;74.03;100509.81;6160019;23;20087;-87
2021/01/09 10:18:32;;;;;;;57.25;15.73;;;;;;;4.62;74.03;100508.91;6160527;23;20021;-87
2021/01/09 10:21:03;;;;;;;79.05;16.17;;;;;;;4.62;74.05;100503.69;6186761;23;20025;-85
2021/01/09 10:23:29;;;;;;;39.13;15.13;;;;;;;4.62;74.15;100508.91;6185748;23;20020;-85
2021/01/09 10:25:56;;;;;;;84.20;15.60;;;;;;;4.63;74.26;100505.44;6186192;23;20458;-85
2021/01/09 10:28:23;;;;;;;59.15;14.48;;;;;;;4.63;73.89;100502.84;6186715;23;20024;-87
2021/01/09 10:30:49;;;;;;;128.18;16.67;;;;;;;4.62;73.86;100506.31;6186331;23;20021;-85
2021/01/09 10:33:16;;;;;;;66.43;16.35;;;;;;;4.60;73.84;100498.50;6159597;23;20025;-87
2021/01/09 10:35:47;;;;;;;104.95;16.80;;;;;;;4.59;73.47;100498.56;6159735;23;20479;-85
2021/01/09 10:38:14;;;;;;;70.72;16.00;;;;;;;4.60;73.89;100490.69;6160057;23;20348;-86
2021/01/09 10:40:41;;;;;;;125.50;17.90;;;;;;;4.60;73.92;100489.84;6186281;23;20028;-86
2021/01/09 10:43:08;;;;;;;91.50;15.05;;;;;;;4.62;73.88;100490.66;6159445;23;20029;-84
2021/01/09 10:45:34;;;;;;;73.75;14.70;;;;;;;4.61;74.11;100487.22;6186245;23;20028;-85
2021/01/09 10:48:00;;;;;;;93.18;17.10;;;;;;;4.60;73.97;100485.47;6159890;23;20020;-86
2021/01/09 10:50:27;;;;;;;94.50;15.88;;;;;;;4.61;73.89;100497.66;6186036;23;20088;-87
2021/01/09 10:52:53;;;;;;;130.55;17.35;;;;;;;4.60;74.09;100490.69;6185978;23;20024;-86
2021/01/09 10:55:19;;;;;;;149.90;17.85;;;;;;;4.60;73.95;100487.25;6159523;23;20025;-85
2021/01/09 10:57:45;;;;;;;32.97;14.10;;;;;;;4.60;74.01;100487.25;6186470;23;20021;-87
2021/01/09 11:00:14;;;;;;;190.30;16.00;;;;;;;4.60;74.07;100480.25;6186283;23;20021;-86
2021/01/09 11:02:40;;;;;;;133.85;15.68;;;;;;;4.59;73.66;100477.72;6159378;23;20032;-85
2021/01/09 11:05:07;;;;;;;133.25;15.15;;;;;;;4.56;73.85;100484.69;6159098;23;20072;-86
2021/01/09 11:07:33;;;;;;;194.68;16.45;;;;;;;4.54;73.64;100483.88;6186136;23;20024;-85
2021/01/09 11:09:59;;;;;;;113.35;14.63;;;;;;;4.52;73.77;100488.25;6186226;23;20021;-87
2021/01/09 11:12:26;;;;;;;168.75;16.10;;;;;;;4.51;73.77;100490.88;6159992;23;20121;-86
2021/01/09 11:14:52;;;;;;;94.82;12.95;;;;;;;4.50;73.89;100481.34;6159184;23;20026;-87
2021/01/09 11:17:19;;;;;;;125.55;14.10;;;;;;;4.48;73.90;100480.53;6159792;23;20065;-86
2021/01/09 11:19:45;;;;;;;92.20;12.27;;;;;;;4.48;74.36;100483.97;6160784;23;20021;-86
2021/01/09 11:22:11;;;;;;;76.97;13.10;;;;;;;4.49;74.56;100471.81;6185752;23;20021;-86
2021/01/09 11:24:37;;;;;;;141.45;15.02;;;;;;;4.51;74.28;100478.72;6185920;23;20020;-86
2021/01/09 11:27:07;;;;;;;129.07;13.88;;;;;;;4.54;74.25;100488.22;6185091;23;20036;-86
2021/01/09 11:29:34;;;;;;;118.63;13.90;;;;;;;4.57;74.50;100481.19;6186145;23;20021;-86
2021/01/09 11:32:02;;;;;;;124.03;14.50;;;;;;;4.62;74.21;100482.84;6185640;23;20025;-85
2021/01/09 11:34:29;;;;;;;54.25;12.95;;;;;;;4.63;74.22;100484.59;6159767;23;20399;-85
2021/01/09 11:36:56;;;;;;;55.75;12.13;;;;;;;4.65;74.72;100477.56;6161750;23;20025;-86
2021/01/09 11:39:22;;;;;;;124.65;13.43;;;;;;;4.70;74.53;100486.16;6161439;23;20059;-85
2021/01/09 11:41:48;;;;;;;134.73;13.02;;;;;;;4.73;74.63;100488.69;6187551;23;20028;-86
2021/01/09 11:44:15;;;;;;;109.20;12.55;;;;;;;4.78;74.51;100484.25;6187534;23;20056;-85
2021/01/09 11:46:42;;;;;;;50.72;11.05;;;;;;;4.81;74.30;100486.78;6161564;23;20017;-86
2021/01/09 11:49:11;;;;;;;39.72;11.80;;;;;;;4.85;74.31;100484.97;6162438;23;20028;-86
2021/01/09 11:51:37;;;;;;;91.60;13.00;;;;;;;4.89;74.09;100486.63;6187931;23;20032;-85
2021/01/09 11:54:04;;;;;;;75.25;13.18;;;;;;;4.92;74.13;100485.69;6187402;23;20021;-86
2021/01/09 11:56:54;;;;;;;77.00;13.88;;;;;;;4.94;73.93;100478.72;6165334;23;20044;-86
2021/01/09 11:59:20;;;;;;;69.88;13.73;;;;;;;4.99;74.22;100476.84;6161864;23;20354;-86
2021/01/09 12:01:46;;;;;;;58.97;13.82;;;;;;;5.02;74.52;100468.97;6187541;23;20021;-86